This is the latest recevied weather packets stored in our database for station/object DL6ABE-13. If no packets are shown the sender has not sent any weather packets the latest 10 day(s).
| Time | Temp. | Humidity | Pressure | Rain* | Wind** | Luminosity | Snow |
|---|---|---|---|---|---|---|---|
| 1777484496 | 19.44° C | 37% | 1016.4 hPa | - | - | - | - |
| 1777483291 | 19.44° C | 37% | 1016.4 hPa | - | - | - | - |
| 1777480882 | 20° C | 38% | 1016.3 hPa | - | - | - | - |
| 1777480280 | 20° C | 38% | 1016.1 hPa | - | - | - | - |
| 1777477275 | 20.56° C | 40% | 1015.9 hPa | - | - | - | - |
| 1777476671 | 20.56° C | 40% | 1015.9 hPa | - | - | - | - |
| 1777474260 | 20.56° C | 42% | 1015.8 hPa | - | - | - | - |
| 1777470047 | 20.56° C | 44% | 1015.9 hPa | - | - | - | - |
| 1777456203 | 16.11° C | 52% | 1016.4 hPa | - | - | - | - |
| 1777453836 | 15° C | 53% | 1016.6 hPa | - | - | - | - |
| 1777442957 | 10.56° C | 60% | 1016.4 hPa | - | - | - | - |
| 1777441151 | 10° C | 62% | 1016.2 hPa | - | - | - | - |
| 1777433927 | 10.56° C | 60% | 1014.7 hPa | - | - | - | - |
| 1777432724 | 10.56° C | 60% | 1014.8 hPa | - | - | - | - |
| 1777430316 | 11.67° C | 59% | 1014.5 hPa | - | - | - | - |
| 1777429715 | 11.67° C | 59% | 1014.5 hPa | - | - | - | - |
| 1777421288 | 14.44° C | 57% | 1014.3 hPa | - | - | - | - |
| 1777418274 | 15.56° C | 56% | 1014.1 hPa | - | - | - | - |
| 1777417674 | 15.56° C | 56% | 1014.1 hPa | - | - | - | - |
| 1777417072 | 15.56° C | 56% | 1014.1 hPa | - | - | - | - |
| 1777416470 | 15.56° C | 56% | 1014 hPa | - | - | - | - |
| 1777414663 | 16.11° C | 54% | 1013.8 hPa | - | - | - | - |
| 1777414061 | 16.67° C | 54% | 1013.7 hPa | - | - | - | - |
| 1777411654 | 16.67° C | 51% | 1013.3 hPa | - | - | - | - |
| 1777410470 | 17.22° C | 50% | 1013.2 hPa | - | - | - | - |
* Rain since midnight (hover to see other rain measurements)
** Current wind speed in m/s (hover to see current wind gust speed)